Aérodrome :
LOGIN :

S'inscrire | Disclaimer

   EN    FR    IT 

 










Légende :    VFR   VFR Marginal   IFR   IFR Intensif   IFR Très Intensif
Visi : 
Plafond : 
>= 8 km
>= 3000ft
5 à 8 km
1000 à 3000 ft
1500m à 5 km
500 à 1000 ft
800 à 1500m
200 à 500 ft
< 800m
< 200 ft
Symboles :   Orages  Brouillard  Fortes neiges  Fortes précipitations  Vent > 20 kt
SIGMETs :   Divers  Orages  Givrage  Turbulence  Onde Orograph.  Cendres Volcan.






- Altitude de l'aérodrome : 236 ft
- Code IATA : MMX


ESMS - Malmö Sturup

DERNIER METAR :
  • 151220Z 09019KT 9999 BKN018 09/05 Q1012

METARs EXPIRÉS :
  • 151150Z 10022KT 9999 BKN021 09/05 Q1013
  • 151120Z 10021G31KT 9999 OVC020 08/04 Q1013
  • 151050Z 10022G33KT 9999 OVC021 08/04 Q1013
  • 151020Z 10022KT 9999 BKN021 08/04 Q1014
  • 150950Z 09023KT 9999 OVC021 08/04 Q1013

TAF TAF ESMS
Valide du 15 à 12h jusqu'au 16 à 12h UTC


151114Z 1512/1612 10018KT 9999 BKN020
TEMPO 1512/1517 09018G30KT BKN010
BECMG 1517/1520 09020G32KT BKN006
TEMPO 1520/1524 2000 -RADZ BR BKN004
BECMG 1520/1522 10015KT
TEMPO 1600/1604 BKN010
TEMPO 1604/1612 3000 RADZ BR BKN004



MET'MAP, la Météo Aéronautique d'un coup d'oeil ! - Copyright ORBIFLY Décembre 2007 - Disclaimer

ORBIFLY MET'MAP TEAM :

Programmation & Développement : Alexandra Zaïnal
Conception & Développement : Baudouin d'Aumeries
Co-Programmation & Développement : Marc-Olivier Méhu
Soutien technique & logistique : Manuel Goepfert

Contact : metmap@orbifly.com




SOURCES & CREDITS :

   NOAA